Time;durP1;ratioP1;P1;durP2;ratioP2;P2;SDS_P1;SDS_P2;PMS_P1;PMS_P2;Temp;Humidity;BMP_temperature;BMP_pressure;BME280_temperature;BME280_humidity;BME280_pressure;Samples;Min_cycle;Max_cycle;Signal;HPM_P1;HPM_P2
2022/01/10 00:00:22;;;;;;;1.77;1.10;;;;;;;;;;7389305;19;20062;-71
2022/01/10 00:02:51;;;;;;;1.33;1.05;;;;;;;;;;7391186;19;20010;-71
2022/01/10 00:05:17;;;;;;;0.98;0.85;;;;;;;;;;7389002;19;20793;-71
2022/01/10 00:07:42;;;;;;;0.95;0.90;;;;;;;;;;7391954;19;20010;-71
2022/01/10 00:10:09;;;;;;;0.80;0.80;;;;;;;;;;7390310;19;20012;-71
2022/01/10 00:12:34;;;;;;;1.10;0.88;;;;;;;;;;7392534;19;20437;-71
2022/01/10 00:15:00;;;;;;;1.73;1.02;;;;;;;;;;7388967;19;20473;-71
2022/01/10 00:17:25;;;;;;;1.20;0.90;;;;;;;;;;7386951;19;20103;-71
2022/01/10 00:19:50;;;;;;;2.30;1.15;;;;;;;;;;7386446;19;20009;-71
2022/01/10 00:22:16;;;;;;;3.58;0.95;;;;;;;;;;7388908;19;20078;-71
2022/01/10 00:24:41;;;;;;;1.85;1.00;;;;;;;;;;7386701;19;19999;-71
2022/01/10 00:27:06;;;;;;;1.35;0.82;;;;;;;;;;7390038;19;20009;-71
2022/01/10 00:29:32;;;;;;;3.45;1.58;;;;;;;;;;7383623;19;20128;-71
2022/01/10 00:31:58;;;;;;;1.98;1.10;;;;;;;;;;7390474;19;20017;-71
2022/01/10 00:34:24;;;;;;;1.58;1.05;;;;;;;;;;7387769;19;20028;-71
2022/01/10 00:36:50;;;;;;;2.38;1.20;;;;;;;;;;7390518;19;20512;-71
2022/01/10 00:39:15;;;;;;;2.45;1.40;;;;;;;;;;7388600;19;20014;-71
2022/01/10 00:41:41;;;;;;;1.83;1.27;;;;;;;;;;7390444;19;20002;-71
2022/01/10 00:44:09;;;;;;;3.08;1.52;;;;;;;;;;7386681;19;20030;-71
2022/01/10 00:46:34;;;;;;;3.03;1.20;;;;;;;;;;7386163;19;20110;-71
2022/01/10 00:48:59;;;;;;;3.30;1.63;;;;;;;;;;7385627;19;20070;-71
2022/01/10 00:51:25;;;;;;;1.23;0.98;;;;;;;;;;7390652;19;20305;-71
2022/01/10 00:53:52;;;;;;;1.67;1.08;;;;;;;;;;7388060;19;20014;-71
2022/01/10 00:56:18;;;;;;;1.25;0.90;;;;;;;;;;7389820;19;20100;-71
2022/01/10 00:58:43;;;;;;;1.30;1.13;;;;;;;;;;7386661;19;20010;-71
2022/01/10 01:01:09;;;;;;;1.30;1.10;;;;;;;;;;7386631;19;20011;-71
2022/01/10 01:03:34;;;;;;;2.63;1.25;;;;;;;;;;7386394;19;20036;-71
2022/01/10 01:06:00;;;;;;;1.83;1.17;;;;;;;;;;7387644;19;19998;-71
2022/01/10 01:08:29;;;;;;;5.07;1.33;;;;;;;;;;7386958;19;20346;-71
2022/01/10 01:13:57;;;;;;;1.40;0.90;;;;;;;;;;7386908;19;20312;-71
2022/01/10 01:17:08;;;;;;;2.88;1.40;;;;;;;;;;7388488;19;20396;-71
2022/01/10 01:24:32;;;;;;;3.17;1.30;;;;;;;;;;7388191;19;20048;-71
2022/01/10 01:26:58;;;;;;;2.60;1.33;;;;;;;;;;7386872;19;20011;-71
2022/01/10 01:29:26;;;;;;;2.70;1.65;;;;;;;;;;7385107;19;20539;-71
2022/01/10 01:31:52;;;;;;;1.75;1.30;;;;;;;;;;7385458;19;19995;-71
2022/01/10 01:34:19;;;;;;;2.90;1.35;;;;;;;;;;7385978;19;20014;-71
2022/01/10 01:36:49;;;;;;;3.50;1.08;;;;;;;;;;7389243;19;20013;-71
2022/01/10 01:39:25;;;;;;;1.15;1.05;;;;;;;;;;7383171;19;20014;-71
2022/01/10 01:42:01;;;;;;;2.35;1.38;;;;;;;;;;7389639;19;20015;-71
2022/01/10 01:44:26;;;;;;;1.98;1.10;;;;;;;;;;7386804;19;20019;-71
2022/01/10 01:46:52;;;;;;;3.60;1.92;;;;;;;;;;7385340;19;20032;-71
2022/01/10 01:49:17;;;;;;;2.50;1.48;;;;;;;;;;7386510;19;20026;-71
2022/01/10 01:51:43;;;;;;;2.28;1.50;;;;;;;;;;7388167;19;20485;-71
2022/01/10 01:54:09;;;;;;;3.65;2.10;;;;;;;;;;7386944;19;20376;-71
2022/01/10 01:56:35;;;;;;;3.45;1.50;;;;;;;;;;7386169;19;20018;-71
2022/01/10 01:59:01;;;;;;;3.88;1.48;;;;;;;;;;7385004;19;20014;-71
2022/01/10 02:01:28;;;;;;;1.15;1.02;;;;;;;;;;7387578;19;20016;-71
2022/01/10 02:03:53;;;;;;;2.55;1.85;;;;;;;;;;7387410;19;20496;-71
2022/01/10 02:06:19;;;;;;;3.60;1.40;;;;;;;;;;7384657;19;20014;-71
2022/01/10 02:08:44;;;;;;;2.38;1.42;;;;;;;;;;7385598;19;20031;-71
2022/01/10 02:11:13;;;;;;;1.40;1.30;;;;;;;;;;7388087;19;20006;-71
2022/01/10 02:13:39;;;;;;;2.22;1.50;;;;;;;;;;7387321;19;20006;-71
2022/01/10 02:16:06;;;;;;;1.98;1.33;;;;;;;;;;7386474;19;20018;-71
2022/01/10 02:18:33;;;;;;;2.83;1.40;;;;;;;;;;7384770;19;20032;-71
2022/01/10 02:21:05;;;;;;;0.80;0.80;;;;;;;;;;7387521;19;20006;-71
2022/01/10 02:23:33;;;;;;;2.50;1.35;;;;;;;;;;7383495;19;20094;-71
2022/01/10 02:26:00;;;;;;;1.15;0.98;;;;;;;;;;7383831;19;20010;-71
2022/01/10 02:28:26;;;;;;;1.58;1.38;;;;;;;;;;7384917;19;20009;-71
2022/01/10 02:30:56;;;;;;;2.67;1.42;;;;;;;;;;7386008;19;20003;-71
2022/01/10 02:33:22;;;;;;;1.55;1.30;;;;;;;;;;7385402;19;20133;-71
2022/01/10 02:35:59;;;;;;;3.17;1.25;;;;;;;;;;7385167;19;20452;-71
2022/01/10 02:38:25;;;;;;;2.50;1.25;;;;;;;;;;7383469;19;20003;-71
2022/01/10 02:40:52;;;;;;;1.65;1.17;;;;;;;;;;7383410;19;20331;-71
2022/01/10 02:43:18;;;;;;;2.50;1.60;;;;;;;;;;7386037;19;20009;-71
2022/01/10 02:45:44;;;;;;;3.42;1.33;;;;;;;;;;7383507;19;20006;-71
2022/01/10 02:48:10;;;;;;;2.25;1.40;;;;;;;;;;7385663;19;20007;-71
2022/01/10 02:50:35;;;;;;;3.22;1.30;;;;;;;;;;7385214;19;20488;-71
2022/01/10 02:53:00;;;;;;;1.55;1.17;;;;;;;;;;7383098;19;20421;-71
2022/01/10 02:55:26;;;;;;;1.38;1.27;;;;;;;;;;7385863;19;20003;-71
2022/01/10 02:57:51;;;;;;;1.33;1.23;;;;;;;;;;7386172;19;20019;-71
2022/01/10 03:00:22;;;;;;;2.40;1.40;;;;;;;;;;7384620;19;20023;-71
2022/01/10 03:02:52;;;;;;;2.22;1.20;;;;;;;;;;7386134;19;20014;-71
2022/01/10 03:05:19;;;;;;;2.05;1.42;;;;;;;;;;7383430;19;20014;-71
2022/01/10 03:07:44;;;;;;;3.78;1.60;;;;;;;;;;7384498;19;20062;-71
2022/01/10 03:10:11;;;;;;;2.53;1.80;;;;;;;;;;7381581;19;20080;-71
2022/01/10 03:12:36;;;;;;;2.65;1.70;;;;;;;;;;7384494;19;20003;-71
2022/01/10 03:15:04;;;;;;;3.28;1.80;;;;;;;;;;7384697;19;20005;-71
2022/01/10 03:17:30;;;;;;;2.63;1.50;;;;;;;;;;7385675;19;20022;-71
2022/01/10 03:19:56;;;;;;;3.35;1.83;;;;;;;;;;7381223;19;20006;-71
2022/01/10 03:22:21;;;;;;;2.28;1.88;;;;;;;;;;7385524;19;20349;-71
2022/01/10 03:24:47;;;;;;;2.20;1.50;;;;;;;;;;7383860;19;20030;-71
2022/01/10 03:27:12;;;;;;;11.82;6.93;;;;;;;;;;7386042;19;20010;-71
2022/01/10 03:29:38;;;;;;;7.63;4.65;;;;;;;;;;7382566;19;20516;-71
2022/01/10 03:32:05;;;;;;;4.15;2.80;;;;;;;;;;7383483;19;20433;-71
2022/01/10 03:34:31;;;;;;;3.72;2.50;;;;;;;;;;7382162;19;20050;-71
2022/01/10 03:36:56;;;;;;;4.68;2.00;;;;;;;;;;7384075;19;20015;-71
2022/01/10 03:39:22;;;;;;;2.75;1.90;;;;;;;;;;7383009;19;20327;-71
2022/01/10 03:41:47;;;;;;;3.67;2.00;;;;;;;;;;7384334;19;20010;-71
2022/01/10 03:44:13;;;;;;;2.88;1.80;;;;;;;;;;7384572;19;20035;-71
2022/01/10 03:46:38;;;;;;;4.10;1.40;;;;;;;;;;7382267;19;20733;-71
2022/01/10 03:49:05;;;;;;;2.95;1.80;;;;;;;;;;7383164;19;20014;-71
2022/01/10 03:51:30;;;;;;;2.03;1.48;;;;;;;;;;7386879;19;20026;-71
2022/01/10 03:53:56;;;;;;;2.80;1.70;;;;;;;;;;7389478;19;20082;-71
2022/01/10 03:56:23;;;;;;;2.00;1.45;;;;;;;;;;7392741;19;20014;-71
2022/01/10 03:58:49;;;;;;;2.17;1.63;;;;;;;;;;7389575;19;20014;-71
2022/01/10 04:01:14;;;;;;;8.20;3.42;;;;;;;;;;7387874;19;20322;-71
2022/01/10 04:03:40;;;;;;;5.40;2.63;;;;;;;;;;7390543;19;20022;-71
2022/01/10 04:06:07;;;;;;;3.25;1.92;;;;;;;;;;7387605;19;20010;-71
2022/01/10 04:08:32;;;;;;;3.33;1.90;;;;;;;;;;7389424;19;20039;-71
2022/01/10 04:10:58;;;;;;;2.35;1.73;;;;;;;;;;7391827;19;20006;-71
2022/01/10 04:13:23;;;;;;;3.15;2.15;;;;;;;;;;7387735;19;20038;-71
2022/01/10 04:15:49;;;;;;;2.17;1.65;;;;;;;;;;7387149;19;19994;-71
2022/01/10 04:18:15;;;;;;;2.88;1.52;;;;;;;;;;7388062;19;20007;-71
2022/01/10 04:20:41;;;;;;;2.42;1.65;;;;;;;;;;7383784;19;20006;-71
2022/01/10 04:23:06;;;;;;;3.08;1.95;;;;;;;;;;7390014;19;20015;-71
2022/01/10 04:25:32;;;;;;;2.22;1.73;;;;;;;;;;7388467;19;20018;-71
2022/01/10 04:27:57;;;;;;;4.50;1.90;;;;;;;;;;7388673;19;20142;-71
2022/01/10 04:30:23;;;;;;;2.90;2.22;;;;;;;;;;7388613;19;20002;-71
2022/01/10 04:32:48;;;;;;;2.55;1.50;;;;;;;;;;7386449;19;19994;-71
2022/01/10 04:35:13;;;;;;;2.63;1.95;;;;;;;;;;7387886;19;20003;-71
2022/01/10 04:37:39;;;;;;;5.07;2.20;;;;;;;;;;7389304;19;20313;-71
2022/01/10 04:40:05;;;;;;;3.30;1.65;;;;;;;;;;7385527;19;20033;-71
2022/01/10 04:42:31;;;;;;;3.60;2.08;;;;;;;;;;7385820;19;20003;-71
2022/01/10 04:44:56;;;;;;;2.22;1.73;;;;;;;;;;7388319;19;20009;-71
2022/01/10 04:47:22;;;;;;;2.95;2.20;;;;;;;;;;7390554;19;20447;-71
2022/01/10 04:52:29;;;;;;;3.08;2.13;;;;;;;;;;7388093;19;20358;-71
2022/01/10 04:54:57;;;;;;;3.03;1.52;;;;;;;;;;7390125;19;20117;-71
2022/01/10 04:57:22;;;;;;;3.30;2.13;;;;;;;;;;7383252;19;20011;-71
2022/01/10 04:59:48;;;;;;;2.63;1.98;;;;;;;;;;7384419;19;19999;-71
2022/01/10 05:02:14;;;;;;;2.45;1.73;;;;;;;;;;7387557;19;20031;-71
2022/01/10 05:04:39;;;;;;;2.42;1.60;;;;;;;;;;7384509;19;20022;-71
2022/01/10 05:07:04;;;;;;;4.28;2.10;;;;;;;;;;7387210;19;20065;-71
2022/01/10 05:09:30;;;;;;;3.60;1.70;;;;;;;;;;7386132;19;20010;-71
2022/01/10 05:11:55;;;;;;;2.72;1.67;;;;;;;;;;7386076;19;20045;-71
2022/01/10 05:14:21;;;;;;;3.42;1.90;;;;;;;;;;7388552;19;20007;-71
2022/01/10 05:16:47;;;;;;;2.53;1.73;;;;;;;;;;7387805;19;20040;-71
2022/01/10 05:19:13;;;;;;;5.13;1.95;;;;;;;;;;7385697;19;20015;-71
2022/01/10 05:21:38;;;;;;;4.05;2.03;;;;;;;;;;7388153;19;20097;-71
2022/01/10 05:24:04;;;;;;;4.25;2.45;;;;;;;;;;7386159;19;20091;-71
2022/01/10 05:26:29;;;;;;;3.20;2.20;;;;;;;;;;7383130;19;20329;-71
2022/01/10 05:28:59;;;;;;;3.80;2.30;;;;;;;;;;7384336;19;20350;-71
2022/01/10 05:31:25;;;;;;;4.07;2.22;;;;;;;;;;7386936;19;20078;-71
2022/01/10 05:33:50;;;;;;;4.03;2.40;;;;;;;;;;7387226;19;20120;-71
2022/01/10 05:36:16;;;;;;;2.47;2.17;;;;;;;;;;7386947;19;20750;-71
2022/01/10 05:38:41;;;;;;;5.68;2.90;;;;;;;;;;7383491;19;20007;-71
2022/01/10 05:41:06;;;;;;;4.65;3.15;;;;;;;;;;7384917;19;20007;-71
2022/01/10 05:43:33;;;;;;;6.05;3.05;;;;;;;;;;7386509;19;20010;-71
2022/01/10 05:45:58;;;;;;;5.43;2.90;;;;;;;;;;7385333;19;20032;-71
2022/01/10 05:48:30;;;;;;;6.30;3.22;;;;;;;;;;7385329;19;20574;-72
2022/01/10 05:50:56;;;;;;;7.18;3.42;;;;;;;;;;7384648;19;20014;-71
2022/01/10 05:53:22;;;;;;;6.05;3.05;;;;;;;;;;7384993;19;20421;-71
2022/01/10 05:55:48;;;;;;;6.75;3.47;;;;;;;;;;7382945;19;20018;-71
2022/01/10 05:58:14;;;;;;;6.35;3.38;;;;;;;;;;7383891;19;20017;-71
2022/01/10 06:00:40;;;;;;;6.32;3.38;;;;;;;;;;7385247;19;20030;-71
2022/01/10 06:03:06;;;;;;;7.38;3.22;;;;;;;;;;7385676;19;20103;-71
2022/01/10 06:05:31;;;;;;;3.55;2.30;;;;;;;;;;7383237;19;20010;-71
2022/01/10 06:08:03;;;;;;;3.58;2.40;;;;;;;;;;7336720;19;20438;-71
2022/01/10 06:10:30;;;;;;;6.75;3.05;;;;;;;;;;7350402;19;20006;-71
2022/01/10 06:12:56;;;;;;;4.03;2.30;;;;;;;;;;7381859;19;20496;-72
2022/01/10 06:15:23;;;;;;;5.20;2.95;;;;;;;;;;7377030;19;20364;-72
2022/01/10 06:17:49;;;;;;;5.00;2.90;;;;;;;;;;7377466;19;20383;-72
2022/01/10 06:20:15;;;;;;;7.00;3.50;;;;;;;;;;7381383;19;20014;-71
2022/01/10 06:22:40;;;;;;;5.25;3.40;;;;;;;;;;7379935;19;20024;-72
2022/01/10 06:25:07;;;;;;;5.43;3.20;;;;;;;;;;7378031;19;20595;-72
2022/01/10 06:27:33;;;;;;;5.88;3.30;;;;;;;;;;7382207;19;20011;-72
2022/01/10 06:29:58;;;;;;;10.10;4.15;;;;;;;;;;7379047;19;20439;-72
2022/01/10 06:32:23;;;;;;;5.82;3.22;;;;;;;;;;7379990;19;20095;-72
2022/01/10 06:34:49;;;;;;;6.75;3.30;;;;;;;;;;7376991;19;20575;-71
2022/01/10 06:37:15;;;;;;;9.43;3.58;;;;;;;;;;7383214;19;19999;-71
2022/01/10 06:39:40;;;;;;;6.05;3.08;;;;;;;;;;7381663;19;20002;-73
2022/01/10 06:42:06;;;;;;;5.15;3.20;;;;;;;;;;7383150;19;20434;-72
2022/01/10 06:44:31;;;;;;;8.88;3.85;;;;;;;;;;7381231;19;20010;-72
2022/01/10 06:46:57;;;;;;;5.35;3.30;;;;;;;;;;7383598;19;20381;-72
2022/01/10 06:49:22;;;;;;;6.00;4.13;;;;;;;;;;7380418;19;20010;-72
2022/01/10 06:51:48;;;;;;;5.28;3.13;;;;;;;;;;7383537;19;20348;-70
2022/01/10 06:54:13;;;;;;;7.57;3.17;;;;;;;;;;7381815;19;20468;-71
2022/01/10 06:56:38;;;;;;;5.38;3.45;;;;;;;;;;7381917;19;19998;-72
2022/01/10 06:59:04;;;;;;;6.72;3.75;;;;;;;;;;7379159;19;20516;-71
2022/01/10 07:01:29;;;;;;;8.85;3.75;;;;;;;;;;7381077;19;20007;-71
2022/01/10 07:03:57;;;;;;;7.05;3.70;;;;;;;;;;7379253;19;20010;-73
2022/01/10 07:06:23;;;;;;;7.82;5.07;;;;;;;;;;7381286;19;20479;-72
2022/01/10 07:08:48;;;;;;;9.38;4.80;;;;;;;;;;7381217;19;20130;-71
2022/01/10 07:11:13;;;;;;;9.95;5.57;;;;;;;;;;7383236;19;20394;-72
2022/01/10 07:13:38;;;;;;;8.80;4.93;;;;;;;;;;7380353;19;20014;-72
2022/01/10 07:16:04;;;;;;;9.45;4.55;;;;;;;;;;7380710;19;20059;-72
2022/01/10 07:18:29;;;;;;;7.43;4.63;;;;;;;;;;7379154;19;20028;-71
2022/01/10 07:20:54;;;;;;;7.28;3.80;;;;;;;;;;7374772;19;20404;-71
2022/01/10 07:23:20;;;;;;;7.82;4.05;;;;;;;;;;7376658;19;20456;-72
2022/01/10 07:25:45;;;;;;;7.85;3.90;;;;;;;;;;7385306;19;20473;-72
2022/01/10 07:28:10;;;;;;;8.07;4.03;;;;;;;;;;7388200;19;20010;-71
2022/01/10 07:30:36;;;;;;;6.43;3.78;;;;;;;;;;7389246;19;20125;-73
2022/01/10 07:33:02;;;;;;;6.93;4.32;;;;;;;;;;7385400;19;20034;-72
2022/01/10 07:35:27;;;;;;;7.60;4.10;;;;;;;;;;7385196;19;20014;-72
2022/01/10 07:37:52;;;;;;;5.57;3.30;;;;;;;;;;7379094;19;20007;-72
2022/01/10 07:40:18;;;;;;;11.23;4.70;;;;;;;;;;7384832;19;20485;-73
2022/01/10 07:42:43;;;;;;;7.03;4.35;;;;;;;;;;7389130;19;20082;-73
2022/01/10 07:45:09;;;;;;;5.50;3.53;;;;;;;;;;7383298;19;20815;-73
2022/01/10 07:47:36;;;;;;;10.20;4.65;;;;;;;;;;7390117;19;19999;-74
2022/01/10 07:50:03;;;;;;;6.72;3.90;;;;;;;;;;7383743;19;20314;-72
2022/01/10 07:52:29;;;;;;;10.75;4.93;;;;;;;;;;7387920;19;20458;-73
2022/01/10 07:54:55;;;;;;;7.30;3.70;;;;;;;;;;7386530;19;20006;-74
2022/01/10 07:57:20;;;;;;;7.47;4.45;;;;;;;;;;7388279;19;20002;-74
2022/01/10 07:59:45;;;;;;;10.00;4.40;;;;;;;;;;7384522;19;20011;-75
2022/01/10 08:02:11;;;;;;;9.50;5.00;;;;;;;;;;7388998;19;20017;-72
2022/01/10 08:04:36;;;;;;;10.75;5.50;;;;;;;;;;7383894;19;20078;-71
2022/01/10 08:07:03;;;;;;;11.85;5.47;;;;;;;;;;7385423;19;20041;-72
2022/01/10 08:09:29;;;;;;;10.50;5.03;;;;;;;;;;7383370;19;20089;-72
2022/01/10 08:11:59;;;;;;;11.52;6.05;;;;;;;;;;7386540;19;20390;-72
2022/01/10 08:14:25;;;;;;;11.02;5.47;;;;;;;;;;7386145;19;20025;-72
2022/01/10 08:16:50;;;;;;;9.25;4.95;;;;;;;;;;7386362;19;20002;-71
2022/01/10 08:19:15;;;;;;;11.35;5.40;;;;;;;;;;7384464;19;20331;-72
2022/01/10 08:21:41;;;;;;;8.23;5.10;;;;;;;;;;7385543;19;20173;-71
2022/01/10 08:24:06;;;;;;;10.93;4.40;;;;;;;;;;7385698;19;20034;-72
2022/01/10 08:26:31;;;;;;;16.02;4.80;;;;;;;;;;7384433;19;20010;-71
2022/01/10 08:28:57;;;;;;;12.45;4.93;;;;;;;;;;7383896;19;20011;-72
2022/01/10 08:31:22;;;;;;;15.10;5.53;;;;;;;;;;7384838;19;20473;-72
2022/01/10 08:33:48;;;;;;;27.75;10.73;;;;;;;;;;7385722;19;20007;-72
2022/01/10 08:36:13;;;;;;;18.00;7.90;;;;;;;;;;7387327;19;20398;-72
2022/01/10 08:38:39;;;;;;;12.35;5.90;;;;;;;;;;7384656;19;20030;-72
2022/01/10 08:41:05;;;;;;;9.60;5.25;;;;;;;;;;7382626;19;20006;-70
2022/01/10 08:43:30;;;;;;;11.85;5.10;;;;;;;;;;7384681;19;20111;-72
2022/01/10 08:45:55;;;;;;;8.90;5.43;;;;;;;;;;7385551;19;20014;-72
2022/01/10 08:48:21;;;;;;;10.73;5.70;;;;;;;;;;7384591;19;20003;-72
2022/01/10 08:50:46;;;;;;;11.07;5.18;;;;;;;;;;7385873;19;20345;-72
2022/01/10 08:53:12;;;;;;;9.90;4.82;;;;;;;;;;7386846;19;20579;-72
2022/01/10 08:55:37;;;;;;;14.60;5.65;;;;;;;;;;7384827;19;20297;-72
2022/01/10 08:58:03;;;;;;;9.75;5.35;;;;;;;;;;7383949;19;20377;-72
2022/01/10 09:00:28;;;;;;;7.72;4.80;;;;;;;;;;7382650;19;20009;-72
2022/01/10 09:02:54;;;;;;;12.57;6.10;;;;;;;;;;7386481;19;20003;-72
2022/01/10 09:05:19;;;;;;;8.63;4.97;;;;;;;;;;7387434;19;20074;-72
2022/01/10 09:07:46;;;;;;;12.88;6.22;;;;;;;;;;7383744;19;20451;-71
2022/01/10 09:10:11;;;;;;;12.93;5.60;;;;;;;;;;7385164;19;20013;-70
2022/01/10 09:12:38;;;;;;;10.65;5.25;;;;;;;;;;7384926;19;20006;-70
2022/01/10 09:15:07;;;;;;;12.43;5.90;;;;;;;;;;7387042;19;20002;-72
2022/01/10 09:17:33;;;;;;;10.57;5.38;;;;;;;;;;7385346;19;20492;-71
2022/01/10 09:19:58;;;;;;;8.95;5.28;;;;;;;;;;7382403;19;20036;-72
2022/01/10 09:22:23;;;;;;;11.65;5.93;;;;;;;;;;7385262;19;20058;-72
2022/01/10 09:24:49;;;;;;;10.10;5.22;;;;;;;;;;7386653;19;19999;-71
2022/01/10 09:27:15;;;;;;;11.05;5.18;;;;;;;;;;7386883;19;20498;-70
2022/01/10 09:29:41;;;;;;;14.60;5.70;;;;;;;;;;7384358;19;20006;-70
2022/01/10 09:32:08;;;;;;;10.38;4.97;;;;;;;;;;7386101;19;20018;-72
2022/01/10 09:34:33;;;;;;;8.75;5.50;;;;;;;;;;7383563;19;20959;-71
2022/01/10 09:36:58;;;;;;;10.13;6.03;;;;;;;;;;7381895;19;20105;-72
2022/01/10 09:39:24;;;;;;;8.15;4.97;;;;;;;;;;7380398;19;20003;-72
2022/01/10 09:41:51;;;;;;;13.57;5.32;;;;;;;;;;7380590;19;20002;-71
2022/01/10 09:44:17;;;;;;;7.88;5.00;;;;;;;;;;7383011;19;20356;-71
2022/01/10 09:46:48;;;;;;;10.00;4.85;;;;;;;;;;7381817;19;20017;-71
2022/01/10 09:49:14;;;;;;;15.73;5.85;;;;;;;;;;7374483;19;20010;-72
2022/01/10 09:51:40;;;;;;;8.43;5.30;;;;;;;;;;7381368;19;20009;-71
2022/01/10 09:54:05;;;;;;;12.15;4.80;;;;;;;;;;7384474;19;20003;-73
2022/01/10 09:56:31;;;;;;;12.60;5.93;;;;;;;;;;7385084;19;20002;-70
2022/01/10 09:58:58;;;;;;;9.70;5.38;;;;;;;;;;7381604;19;20011;-71
2022/01/10 10:01:24;;;;;;;8.50;4.63;;;;;;;;;;7384199;19;20017;-71
2022/01/10 10:03:50;;;;;;;9.30;4.90;;;;;;;;;;7381172;19;20055;-74
2022/01/10 10:06:17;;;;;;;8.23;5.60;;;;;;;;;;7381908;19;20025;-74
2022/01/10 10:08:44;;;;;;;7.88;4.72;;;;;;;;;;7380922;19;20477;-74
2022/01/10 10:11:10;;;;;;;10.48;5.18;;;;;;;;;;7381691;19;20002;-73
2022/01/10 10:13:54;;;;;;;9.02;4.72;;;;;;;;;;7383276;19;20007;-74
2022/01/10 10:16:25;;;;;;;11.70;5.05;;;;;;;;;;7384823;19;20020;-73
2022/01/10 10:18:51;;;;;;;9.15;4.55;;;;;;;;;;7379531;19;20029;-73
2022/01/10 10:21:19;;;;;;;6.72;4.22;;;;;;;;;;7379463;19;20089;-74
2022/01/10 10:23:50;;;;;;;9.07;5.20;;;;;;;;;;7383609;19;19999;-74
2022/01/10 10:26:19;;;;;;;7.35;5.00;;;;;;;;;;7381580;19;20078;-74
2022/01/10 10:28:46;;;;;;;9.20;4.97;;;;;;;;;;7378083;19;20010;-73
2022/01/10 10:31:12;;;;;;;9.38;4.63;;;;;;;;;;7381520;19;20448;-74
2022/01/10 10:33:47;;;;;;;8.13;3.95;;;;;;;;;;7381557;19;20464;-72
2022/01/10 10:36:12;;;;;;;9.63;4.25;;;;;;;;;;7381228;19;20066;-70
2022/01/10 10:38:38;;;;;;;12.40;4.70;;;;;;;;;;7378028;19;20010;-70
2022/01/10 10:41:05;;;;;;;11.07;5.28;;;;;;;;;;7382129;19;20017;-69
2022/01/10 10:43:35;;;;;;;9.48;4.82;;;;;;;;;;7381348;19;20002;-71
2022/01/10 10:46:08;;;;;;;9.85;4.53;;;;;;;;;;7380041;19;20368;-72
2022/01/10 10:48:37;;;;;;;9.75;5.35;;;;;;;;;;7381033;19;20010;-74
2022/01/10 10:51:02;;;;;;;9.32;5.18;;;;;;;;;;7383034;19;20010;-72
2022/01/10 10:53:29;;;;;;;7.65;5.38;;;;;;;;;;7382252;19;20009;-71
2022/01/10 10:55:57;;;;;;;10.30;5.15;;;;;;;;;;7379984;19;20006;-75
2022/01/10 10:58:22;;;;;;;9.80;5.50;;;;;;;;;;7377381;19;20017;-74
2022/01/10 11:00:48;;;;;;;9.13;5.32;;;;;;;;;;7382797;19;20018;-73
2022/01/10 11:03:15;;;;;;;11.02;6.38;;;;;;;;;;7390557;19;20674;-72
2022/01/10 11:05:42;;;;;;;12.52;5.22;;;;;;;;;;7388477;19;20006;-73
2022/01/10 11:08:07;;;;;;;12.80;6.32;;;;;;;;;;7389226;19;20013;-74
2022/01/10 11:10:33;;;;;;;14.35;6.20;;;;;;;;;;7388235;19;20003;-74
2022/01/10 11:13:01;;;;;;;11.43;6.93;;;;;;;;;;7388345;19;20007;-73
2022/01/10 11:15:26;;;;;;;13.32;6.50;;;;;;;;;;7386566;19;20040;-76
2022/01/10 11:18:00;;;;;;;15.77;7.10;;;;;;;;;;7386075;19;20018;-74
2022/01/10 11:20:25;;;;;;;12.98;6.82;;;;;;;;;;7381238;19;20013;-73
2022/01/10 11:22:54;;;;;;;15.65;6.18;;;;;;;;;;7387868;19;20007;-73
2022/01/10 11:25:22;;;;;;;12.40;7.00;;;;;;;;;;7385475;19;20015;-73
2022/01/10 11:27:50;;;;;;;16.60;7.07;;;;;;;;;;7387327;19;20086;-74
2022/01/10 11:30:24;;;;;;;13.45;7.03;;;;;;;;;;7385091;19;20052;-71
2022/01/10 11:33:01;;;;;;;14.23;6.82;;;;;;;;;;7387368;19;20432;-74
2022/01/10 11:35:30;;;;;;;11.07;6.03;;;;;;;;;;7387430;19;20079;-74
2022/01/10 11:37:56;;;;;;;10.55;6.68;;;;;;;;;;7385705;19;20010;-71
2022/01/10 11:40:21;;;;;;;11.52;6.30;;;;;;;;;;7386122;19;20833;-73
2022/01/10 11:42:54;;;;;;;14.98;7.43;;;;;;;;;;7387298;19;20023;-73
2022/01/10 11:45:19;;;;;;;14.75;7.55;;;;;;;;;;7385201;19;20171;-73
2022/01/10 11:48:17;;;;;;;13.88;6.88;;;;;;;;;;7386094;19;19999;-72
2022/01/10 11:50:46;;;;;;;13.93;6.40;;;;;;;;;;7386255;19;20090;-72
2022/01/10 11:53:12;;;;;;;12.30;7.00;;;;;;;;;;7383714;19;20044;-71
2022/01/10 11:55:42;;;;;;;11.75;6.93;;;;;;;;;;7385918;19;20472;-74
2022/01/10 11:58:23;;;;;;;13.18;6.45;;;;;;;;;;7384300;19;20433;-72
2022/01/10 12:00:51;;;;;;;12.50;6.88;;;;;;;;;;7382942;19;20011;-72
2022/01/10 12:03:19;;;;;;;11.00;5.90;;;;;;;;;;7383837;19;20010;-74
2022/01/10 12:05:44;;;;;;;11.35;6.22;;;;;;;;;;7385176;19;20010;-75
2022/01/10 12:08:09;;;;;;;9.38;5.50;;;;;;;;;;7383358;19;20017;-72
2022/01/10 12:10:34;;;;;;;11.75;5.72;;;;;;;;;;7381844;19;20011;-69
2022/01/10 12:13:07;;;;;;;12.43;6.00;;;;;;;;;;7381722;19;20034;-70
2022/01/10 12:15:34;;;;;;;11.02;5.95;;;;;;;;;;7387151;19;20081;-71
2022/01/10 12:17:59;;;;;;;8.32;5.10;;;;;;;;;;7381988;19;20021;-74
2022/01/10 12:20:24;;;;;;;10.15;5.57;;;;;;;;;;7383518;19;21681;-75
2022/01/10 12:22:54;;;;;;;13.13;5.40;;;;;;;;;;7389396;19;20098;-74
2022/01/10 12:25:19;;;;;;;12.02;5.57;;;;;;;;;;7387327;19;20392;-73
2022/01/10 12:27:45;;;;;;;9.77;5.93;;;;;;;;;;7386273;19;19998;-74
2022/01/10 12:30:10;;;;;;;13.38;5.97;;;;;;;;;;7381808;19;20007;-74
2022/01/10 12:32:38;;;;;;;13.30;6.10;;;;;;;;;;7381726;19;20027;-74
2022/01/10 12:35:04;;;;;;;12.52;5.50;;;;;;;;;;7384712;19;20036;-74
2022/01/10 12:37:29;;;;;;;11.25;5.47;;;;;;;;;;7384484;19;20001;-75
2022/01/10 12:39:56;;;;;;;11.45;5.22;;;;;;;;;;7381999;19;19998;-75
2022/01/10 12:42:25;;;;;;;11.70;6.18;;;;;;;;;;7381794;19;20065;-76
2022/01/10 12:44:50;;;;;;;8.07;5.15;;;;;;;;;;7381740;19;20006;-75
2022/01/10 12:47:16;;;;;;;11.20;5.68;;;;;;;;;;7385117;19;20029;-74
2022/01/10 12:49:44;;;;;;;8.65;5.00;;;;;;;;;;7378996;19;20030;-77
2022/01/10 12:52:10;;;;;;;13.68;5.65;;;;;;;;;;7383373;19;20010;-74
2022/01/10 12:54:36;;;;;;;11.70;5.72;;;;;;;;;;7383114;19;20002;-75
2022/01/10 12:57:03;;;;;;;10.75;5.75;;;;;;;;;;7380880;19;20054;-75
2022/01/10 12:59:31;;;;;;;11.45;6.13;;;;;;;;;;7379275;19;20019;-74
2022/01/10 13:01:59;;;;;;;11.70;5.95;;;;;;;;;;7372589;19;20006;-75
2022/01/10 13:04:27;;;;;;;12.43;5.57;;;;;;;;;;7378431;19;20349;-75
2022/01/10 13:06:54;;;;;;;11.90;5.43;;;;;;;;;;7381636;19;20010;-75
2022/01/10 13:09:21;;;;;;;9.32;5.38;;;;;;;;;;7383841;19;20547;-73
2022/01/10 13:11:51;;;;;;;23.38;7.93;;;;;;;;;;7381950;19;20342;-72
2022/01/10 13:14:18;;;;;;;8.73;4.75;;;;;;;;;;7380055;19;20021;-73
2022/01/10 13:16:45;;;;;;;10.52;5.25;;;;;;;;;;7383622;19;20034;-72
2022/01/10 13:19:13;;;;;;;9.70;5.38;;;;;;;;;;7376130;19;20089;-74
2022/01/10 13:21:47;;;;;;;9.23;5.55;;;;;;;;;;7382581;19;20007;-72
2022/01/10 13:24:21;;;;;;;14.13;6.00;;;;;;;;;;7382681;19;20357;-72
2022/01/10 13:26:52;;;;;;;8.75;5.05;;;;;;;;;;7381513;19;20006;-73
2022/01/10 13:29:31;;;;;;;10.82;5.25;;;;;;;;;;7380885;19;20082;-73
2022/01/10 13:32:34;;;;;;;9.40;5.00;;;;;;;;;;7384020;19;20015;-74
2022/01/10 13:34:59;;;;;;;14.02;5.93;;;;;;;;;;7379371;19;20511;-73
2022/01/10 13:37:27;;;;;;;7.03;4.53;;;;;;;;;;7382910;19;20022;-73
2022/01/10 13:40:11;;;;;;;11.80;5.60;;;;;;;;;;7381537;19;20010;-72
2022/01/10 13:42:59;;;;;;;11.93;5.03;;;;;;;;;;7382595;19;20011;-72
2022/01/10 13:46:05;;;;;;;13.38;5.25;;;;;;;;;;7384157;19;20010;-72
2022/01/10 13:48:31;;;;;;;8.10;4.80;;;;;;;;;;7378209;19;20008;-72
2022/01/10 13:51:00;;;;;;;9.52;5.00;;;;;;;;;;7380073;19;20016;-72
2022/01/10 13:53:31;;;;;;;10.43;5.20;;;;;;;;;;7382651;19;20011;-73
2022/01/10 13:56:22;;;;;;;10.80;5.22;;;;;;;;;;7385131;19;20015;-71
2022/01/10 13:58:52;;;;;;;12.27;5.07;;;;;;;;;;7380680;19;20110;-73
2022/01/10 14:01:20;;;;;;;7.55;4.72;;;;;;;;;;7382227;19;20007;-73
2022/01/10 14:03:48;;;;;;;10.93;5.25;;;;;;;;;;7378312;19;20010;-72
2022/01/10 14:06:21;;;;;;;11.13;5.57;;;;;;;;;;7379394;19;20093;-73
2022/01/10 14:08:51;;;;;;;9.27;5.55;;;;;;;;;;7379697;19;20025;-73
2022/01/10 14:11:17;;;;;;;12.50;6.40;;;;;;;;;;7382519;19;20006;-74
2022/01/10 14:13:47;;;;;;;9.23;4.85;;;;;;;;;;7386868;19;20034;-73
2022/01/10 14:16:14;;;;;;;7.57;4.75;;;;;;;;;;7384921;19;20009;-74
2022/01/10 14:18:40;;;;;;;9.25;5.32;;;;;;;;;;7377904;19;20019;-74
2022/01/10 14:21:07;;;;;;;9.25;4.72;;;;;;;;;;7381501;19;20027;-74
2022/01/10 14:23:32;;;;;;;9.32;4.75;;;;;;;;;;7379776;19;20469;-73
2022/01/10 14:25:58;;;;;;;5.82;3.58;;;;;;;;;;7381778;19;20010;-75
2022/01/10 14:28:23;;;;;;;7.20;3.88;;;;;;;;;;7377782;19;20731;-73
2022/01/10 14:30:50;;;;;;;6.22;3.78;;;;;;;;;;7381806;19;20018;-74
2022/01/10 14:33:16;;;;;;;6.03;3.50;;;;;;;;;;7384699;19;20010;-74
2022/01/10 14:35:41;;;;;;;6.63;3.65;;;;;;;;;;7381348;19;20468;-73
2022/01/10 14:38:06;;;;;;;8.15;4.07;;;;;;;;;;7378924;19;20366;-78
2022/01/10 14:40:32;;;;;;;9.57;4.38;;;;;;;;;;7381081;19;20472;-78
2022/01/10 14:42:58;;;;;;;7.68;3.38;;;;;;;;;;7382566;19;20007;-77
2022/01/10 14:45:24;;;;;;;8.02;4.00;;;;;;;;;;7383103;19;20017;-77
2022/01/10 14:47:50;;;;;;;7.80;3.78;;;;;;;;;;7380314;19;19995;-77